KBCB/BCB METAR and TAF weather

Enter ICAO airport designator
Station Type Date Time Source
KBCB METAR 2019/06/17 12:35 UTC NOAA

KBCB 171235Z AUTO 22003KT 10SM CLR 23/20 A3012 RMK AO2 T02260203


Station Type Date Time Source
KBCB Decoded METAR 2019/06/17 12:35 UTC NOAA

Virginia Tech Airport, VA, United States (KBCB) 37-13N 080-25W
Jun 17, 2019 - 08:35 AM EDT / 2019.06.17 1235 UTC
Wind: from the SW (220 degrees) at 3 MPH (3 KT):0
Visibility: 10 mile(s):0
Sky conditions: clear
Temperature: 72.7 F (22.6 C)
Dew Point: 68.5 F (20.3 C)
Relative Humidity: 86%
Pressure (altimeter): 30.12 in. Hg (1019 hPa)
ob: KBCB 171235Z AUTO 22003KT 10SM CLR 23/20 A3012 RMK AO2 T02260203
cycle: 12

Station Type Date Time Source
KBCB TAF 2019/06/17 12:24 UTC NOAA

TAF KBCB 171123Z 1712/1812 VRB03KT P6SM SCT150
FM171700 VRB03KT P6SM VCTS BKN060CB
TEMPO 1718/1721 2SM TSRA OVC040CB
FM180100 VRB03KT 6SM -SHRA BR BKN060
FM180500 VRB03KT P6SM SCT070

Example: see airport list